createdAt,value
2016-11-26T00:00:02.277Z,0
2016-11-26T00:01:02.368Z,0
2016-11-26T00:02:03.302Z,0
2016-11-26T00:03:02.460Z,0
2016-11-26T00:04:02.517Z,0
2016-11-26T00:05:02.562Z,0
2016-11-26T00:06:02.650Z,0
2016-11-26T00:07:02.668Z,0
2016-11-26T00:08:02.746Z,0
2016-11-26T00:09:02.792Z,0
2016-11-26T00:10:02.860Z,0
2016-11-26T00:11:02.888Z,0
2016-11-26T00:12:02.978Z,0
2016-11-26T00:13:03.015Z,0
2016-11-26T00:14:03.076Z,0
2016-11-26T00:15:03.110Z,0
2016-11-26T00:16:03.193Z,0
2016-11-26T00:17:03.232Z,0
2016-11-26T00:18:03.301Z,0
2016-11-26T00:19:03.661Z,0
2016-11-26T00:20:03.400Z,0
2016-11-26T00:21:03.474Z,0
2016-11-26T00:22:03.547Z,0
2016-11-26T00:23:03.580Z,0
2016-11-26T00:24:03.634Z,0
2016-11-26T00:25:03.708Z,0
2016-11-26T00:26:03.770Z,0
2016-11-26T00:27:03.809Z,0
2016-11-26T00:28:03.915Z,0
2016-11-26T00:29:03.934Z,0
2016-11-26T00:30:04.318Z,0
2016-11-26T00:31:04.044Z,0
2016-11-26T00:32:04.099Z,0
2016-11-26T00:33:04.146Z,0
2016-11-26T00:34:04.205Z,0
2016-11-26T00:35:04.265Z,0
2016-11-26T00:36:04.353Z,0
2016-11-26T00:37:04.394Z,0
2016-11-26T00:38:04.755Z,0
2016-11-26T00:39:04.494Z,0
2016-11-26T00:40:04.550Z,0
2016-11-26T00:41:04.616Z,0
2016-11-26T00:42:04.677Z,0
2016-11-26T00:43:04.753Z,0
2016-11-26T00:44:04.775Z,0
2016-11-26T00:45:04.833Z,0
2016-11-26T00:46:04.924Z,0
2016-11-26T00:47:04.927Z,0
2016-11-26T00:48:05.008Z,0
2016-11-26T00:49:05.039Z,0
2016-11-26T00:50:05.110Z,0
2016-11-26T00:51:05.164Z,0
2016-11-26T00:52:05.224Z,0
2016-11-26T00:53:05.295Z,0
2016-11-26T00:54:05.351Z,0
2016-11-26T00:55:05.395Z,0
2016-11-26T00:56:05.776Z,0
2016-11-26T00:57:05.524Z,0
2016-11-26T00:58:05.555Z,0
2016-11-26T00:59:05.634Z,0
2016-11-26T01:00:05.693Z,0
2016-11-26T01:01:05.750Z,0
2016-11-26T01:02:05.803Z,0
2016-11-26T01:03:05.857Z,0
2016-11-26T01:04:05.925Z,0
2016-11-26T01:05:05.964Z,0
2016-11-26T01:06:06.016Z,0
2016-11-26T01:07:06.080Z,0
2016-11-26T01:08:06.143Z,0
2016-11-26T01:09:06.214Z,0
2016-11-26T01:10:06.251Z,0
2016-11-26T01:11:06.321Z,0
2016-11-26T01:12:06.362Z,0
2016-11-26T01:13:06.435Z,0
2016-11-26T01:14:06.497Z,0
2016-11-26T01:15:06.534Z,0
2016-11-26T01:16:06.611Z,0
2016-11-26T01:17:06.647Z,0
2016-11-26T01:18:06.714Z,0
2016-11-26T01:19:06.775Z,0
2016-11-26T01:20:06.844Z,0
2016-11-26T01:21:06.891Z,0
2016-11-26T01:22:06.944Z,0
2016-11-26T01:23:06.991Z,0
2016-11-26T01:24:07.081Z,0
2016-11-26T01:25:07.113Z,0
2016-11-26T01:26:07.184Z,0
2016-11-26T01:27:07.221Z,0
2016-11-26T01:28:07.282Z,0
2016-11-26T01:29:07.348Z,0
2016-11-26T01:30:07.390Z,0
2016-11-26T01:31:07.455Z,0
2016-11-26T01:32:07.496Z,0
2016-11-26T01:33:07.559Z,0
2016-11-26T01:34:07.631Z,0
2016-11-26T01:35:07.672Z,0
2016-11-26T01:36:07.744Z,0
2016-11-26T01:37:07.795Z,0
2016-11-26T01:38:07.830Z,0
2016-11-26T01:39:07.929Z,0
2016-11-26T01:40:07.971Z,0
2016-11-26T01:41:08.017Z,0
2016-11-26T01:42:08.080Z,0
2016-11-26T01:43:08.142Z,0
2016-11-26T01:44:08.182Z,0
2016-11-26T01:45:08.244Z,0
2016-11-26T01:46:08.317Z,0
2016-11-26T01:47:08.388Z,0
2016-11-26T01:48:08.438Z,0
2016-11-26T01:49:08.778Z,0
2016-11-26T01:50:08.522Z,0
2016-11-26T01:51:08.594Z,0
2016-11-26T01:52:08.641Z,0
2016-11-26T01:53:08.706Z,0
2016-11-26T01:54:08.761Z,0
2016-11-26T01:55:08.826Z,0
2016-11-26T01:56:08.891Z,0
2016-11-26T01:57:08.923Z,0
2016-11-26T01:58:09.022Z,0
2016-11-26T01:59:09.069Z,0
2016-11-26T02:00:09.094Z,0
2016-11-26T02:01:09.157Z,0
2016-11-26T02:02:09.224Z,0
2016-11-26T02:03:09.298Z,0
2016-11-26T02:04:09.359Z,0
2016-11-26T02:05:09.413Z,0
2016-11-26T02:06:09.466Z,0
2016-11-26T02:07:09.501Z,0
2016-11-26T02:08:09.571Z,0
2016-11-26T02:09:09.623Z,0
2016-11-26T02:10:09.660Z,0
2016-11-26T02:11:09.737Z,0
2016-11-26T02:12:09.793Z,0
2016-11-26T02:13:09.861Z,0
2016-11-26T02:14:09.887Z,0
2016-11-26T02:15:09.968Z,0
2016-11-26T02:16:10.020Z,0
2016-11-26T02:17:10.066Z,0
2016-11-26T02:18:10.114Z,0
2016-11-26T02:19:10.186Z,0
2016-11-26T02:20:10.291Z,0
2016-11-26T02:21:10.309Z,0
2016-11-26T02:22:10.348Z,0
2016-11-26T02:23:10.409Z,0
2016-11-26T02:24:10.498Z,0
2016-11-26T02:25:10.536Z,0
2016-11-26T02:26:10.598Z,0
2016-11-26T02:27:10.649Z,0
2016-11-26T02:28:10.702Z,0
2016-11-26T02:29:10.757Z,0
2016-11-26T02:30:10.838Z,0
2016-11-26T02:31:10.845Z,0
2016-11-26T02:32:10.937Z,0
2016-11-26T02:33:10.992Z,0
2016-11-26T02:34:11.065Z,0
2016-11-26T02:35:11.102Z,0
2016-11-26T02:36:11.188Z,0
2016-11-26T02:37:11.212Z,0
2016-11-26T02:38:11.281Z,0
2016-11-26T02:39:11.320Z,0
2016-11-26T02:40:11.380Z,0
2016-11-26T02:41:11.454Z,0
2016-11-26T02:42:11.495Z,0
2016-11-26T02:43:11.522Z,0
2016-11-26T02:44:11.614Z,0
2016-11-26T02:45:11.669Z,0
2016-11-26T02:46:11.723Z,0
2016-11-26T02:47:11.779Z,0
2016-11-26T02:48:11.842Z,0
2016-11-26T02:49:11.899Z,0
2016-11-26T02:50:11.925Z,0
2016-11-26T02:51:12.008Z,0
2016-11-26T02:52:12.053Z,0
2016-11-26T02:53:12.111Z,0
2016-11-26T02:54:12.190Z,0
2016-11-26T02:55:12.242Z,0
2016-11-26T02:56:12.613Z,0
2016-11-26T02:57:12.347Z,0
2016-11-26T02:58:12.400Z,0
2016-11-26T02:59:12.446Z,0
2016-11-26T03:00:12.550Z,0
2016-11-26T03:01:12.568Z,0
2016-11-26T03:02:12.651Z,0
2016-11-26T03:03:12.691Z,0
2016-11-26T03:04:12.741Z,0
2016-11-26T03:05:12.786Z,0
2016-11-26T03:06:12.850Z,0
2016-11-26T03:07:12.931Z,0
2016-11-26T03:08:12.990Z,0
2016-11-26T03:09:13.024Z,0
2016-11-26T03:10:13.078Z,0
2016-11-26T03:11:13.138Z,0
2016-11-26T03:12:13.501Z,0
2016-11-26T03:13:13.557Z,0
2016-11-26T03:14:13.320Z,0
2016-11-26T03:15:13.379Z,0
2016-11-26T03:16:13.451Z,0
2016-11-26T03:17:13.493Z,0
2016-11-26T03:18:13.561Z,0
2016-11-26T03:19:13.584Z,0
2016-11-26T03:20:13.652Z,0
2016-11-26T03:21:13.721Z,0
2016-11-26T03:22:13.756Z,0
2016-11-26T03:23:13.834Z,0
2016-11-26T03:24:13.863Z,0
2016-11-26T03:25:13.936Z,0
2016-11-26T03:26:14.023Z,0
2016-11-26T03:27:14.055Z,0
2016-11-26T03:28:14.096Z,0
2016-11-26T03:29:14.165Z,0
2016-11-26T03:30:14.217Z,0
2016-11-26T03:31:14.305Z,0
2016-11-26T03:32:14.359Z,0
2016-11-26T03:33:14.396Z,0
2016-11-26T03:34:14.440Z,0
2016-11-26T03:35:14.530Z,0
2016-11-26T03:36:14.568Z,0
2016-11-26T03:37:14.624Z,0
2016-11-26T03:38:14.688Z,0
2016-11-26T03:39:14.724Z,0
2016-11-26T03:40:14.798Z,0
2016-11-26T03:41:14.853Z,0
2016-11-26T03:42:14.923Z,0
2016-11-26T03:43:14.955Z,0
2016-11-26T03:44:14.999Z,0
2016-11-26T03:45:15.072Z,0
2016-11-26T03:46:15.139Z,0
2016-11-26T03:47:15.193Z,0
2016-11-26T03:48:15.257Z,0
2016-11-26T03:49:15.292Z,0
2016-11-26T03:50:15.370Z,0
2016-11-26T03:51:15.429Z,0
2016-11-26T03:52:15.469Z,0
2016-11-26T03:53:15.520Z,0
2016-11-26T03:54:15.610Z,0
2016-11-26T03:55:15.645Z,0
2016-11-26T03:56:15.692Z,0
2016-11-26T03:57:15.776Z,0
2016-11-26T03:58:15.814Z,0
2016-11-26T03:59:15.851Z,0
2016-11-26T04:00:15.903Z,0
2016-11-26T04:01:15.989Z,0
2016-11-26T04:02:16.051Z,0
2016-11-26T04:03:16.096Z,0
2016-11-26T04:04:16.142Z,0
2016-11-26T04:05:16.193Z,0
2016-11-26T04:06:16.264Z,0
2016-11-26T04:07:16.318Z,0
2016-11-26T04:08:16.379Z,0
2016-11-26T04:09:16.435Z,0
2016-11-26T04:10:16.519Z,0
2016-11-26T04:11:16.543Z,0
2016-11-26T04:12:16.618Z,0
2016-11-26T04:13:16.665Z,0
2016-11-26T04:14:16.712Z,0
2016-11-26T04:15:16.769Z,0
2016-11-26T04:16:16.853Z,0
2016-11-26T04:17:16.881Z,0
2016-11-26T04:18:16.962Z,0
2016-11-26T04:19:17.307Z,0
2016-11-26T04:20:17.052Z,0
2016-11-26T04:21:17.116Z,0
2016-11-26T04:22:17.203Z,0
2016-11-26T04:23:17.243Z,0
2016-11-26T04:24:17.281Z,0
2016-11-26T04:25:17.345Z,0
2016-11-26T04:26:17.405Z,0
2016-11-26T04:27:17.461Z,0
2016-11-26T04:28:17.527Z,0
2016-11-26T04:29:17.592Z,0
2016-11-26T04:30:17.619Z,0
2016-11-26T04:31:17.708Z,0
2016-11-26T04:32:17.732Z,0
2016-11-26T04:33:17.790Z,0
2016-11-26T04:34:17.850Z,0
2016-11-26T04:35:17.908Z,0
2016-11-26T04:36:17.994Z,0
2016-11-26T04:37:18.034Z,0
2016-11-26T04:38:18.084Z,0
2016-11-26T04:39:18.155Z,0
2016-11-26T04:40:18.206Z,0
2016-11-26T04:41:18.242Z,0
2016-11-26T04:42:18.284Z,0
2016-11-26T04:43:18.384Z,0
2016-11-26T04:44:18.450Z,0
2016-11-26T04:45:18.477Z,0
2016-11-26T04:46:18.553Z,0
2016-11-26T04:47:18.598Z,0
2016-11-26T04:48:18.663Z,0
2016-11-26T04:49:18.701Z,0
2016-11-26T04:50:18.760Z,0
2016-11-26T04:51:18.808Z,0
2016-11-26T04:52:18.868Z,0
2016-11-26T04:53:18.950Z,0
2016-11-26T04:54:18.996Z,0
2016-11-26T04:55:19.031Z,0
2016-11-26T04:56:19.080Z,0
2016-11-26T04:57:19.163Z,0
2016-11-26T04:58:19.206Z,0
2016-11-26T04:59:19.280Z,0
2016-11-26T05:00:19.355Z,0
2016-11-26T05:01:19.400Z,0
2016-11-26T05:02:19.455Z,0
2016-11-26T05:03:19.496Z,0
2016-11-26T05:04:19.567Z,0
2016-11-26T05:05:19.622Z,0
2016-11-26T05:06:19.669Z,0
2016-11-26T05:07:19.705Z,0
2016-11-26T05:08:19.796Z,0
2016-11-26T05:09:19.848Z,0
2016-11-26T05:10:19.902Z,0
2016-11-26T05:11:19.964Z,0
2016-11-26T05:12:20.016Z,0
2016-11-26T05:13:20.085Z,0
2016-11-26T05:14:20.128Z,0
2016-11-26T05:15:20.155Z,0
2016-11-26T05:16:20.212Z,0
2016-11-26T05:17:20.269Z,0
2016-11-26T05:18:20.359Z,0
2016-11-26T05:19:20.390Z,0
2016-11-26T05:20:20.475Z,0
2016-11-26T05:21:20.516Z,0
2016-11-26T05:22:20.571Z,0
2016-11-26T05:23:20.643Z,0
2016-11-26T05:24:20.693Z,0
2016-11-26T05:25:20.736Z,0
2016-11-26T05:26:20.822Z,0
2016-11-26T05:27:20.870Z,0
2016-11-26T05:28:20.907Z,0
2016-11-26T05:29:20.979Z,0
2016-11-26T05:30:21.053Z,0
2016-11-26T05:31:21.092Z,0
2016-11-26T05:32:21.148Z,0
2016-11-26T05:33:21.201Z,0
2016-11-26T05:34:21.259Z,0
2016-11-26T05:35:21.320Z,0
2016-11-26T05:36:21.399Z,0
2016-11-26T05:37:21.419Z,0
2016-11-26T05:38:21.466Z,0
2016-11-26T05:39:21.541Z,0
2016-11-26T05:40:21.582Z,0
2016-11-26T05:41:21.680Z,0
2016-11-26T05:42:21.733Z,0
2016-11-26T05:43:21.765Z,0
2016-11-26T05:44:21.838Z,0
2016-11-26T05:45:21.898Z,0
2016-11-26T05:46:21.956Z,0
2016-11-26T05:47:21.977Z,0
2016-11-26T05:48:22.054Z,0
2016-11-26T05:49:22.124Z,0
2016-11-26T05:50:22.171Z,0
2016-11-26T05:51:22.216Z,0
2016-11-26T05:52:22.319Z,0
2016-11-26T05:53:22.331Z,0
2016-11-26T05:54:22.375Z,0
2016-11-26T05:55:22.455Z,0
2016-11-26T05:56:22.509Z,0
2016-11-26T05:57:22.563Z,0
2016-11-26T05:58:22.629Z,0
2016-11-26T05:59:22.694Z,0
2016-11-26T06:00:22.739Z,0
2016-11-26T06:01:23.096Z,0
2016-11-26T06:02:22.839Z,0
2016-11-26T06:03:22.905Z,0
2016-11-26T06:04:23.012Z,0
2016-11-26T06:05:23.030Z,0
2016-11-26T06:06:23.091Z,0
2016-11-26T06:07:23.130Z,0
2016-11-26T06:08:23.192Z,0
2016-11-26T06:09:23.236Z,0
2016-11-26T06:10:23.296Z,0
2016-11-26T06:11:23.367Z,0
2016-11-26T06:12:23.434Z,0
2016-11-26T06:13:23.464Z,0
2016-11-26T06:14:23.559Z,0
2016-11-26T06:15:23.601Z,0
2016-11-26T06:16:23.656Z,0
2016-11-26T06:17:23.737Z,0
2016-11-26T06:18:23.770Z,0
2016-11-26T06:19:23.834Z,0
2016-11-26T06:20:23.887Z,0
2016-11-26T06:21:23.929Z,0
2016-11-26T06:22:24.013Z,0
2016-11-26T06:23:24.033Z,0
2016-11-26T06:24:24.098Z,0
2016-11-26T06:25:24.185Z,0
2016-11-26T06:26:24.249Z,0
2016-11-26T06:27:24.293Z,0
2016-11-26T06:28:24.341Z,0
2016-11-26T06:29:24.379Z,0
2016-11-26T06:30:24.763Z,0
2016-11-26T06:31:24.497Z,0
2016-11-26T06:32:24.570Z,0
2016-11-26T06:33:24.634Z,0
2016-11-26T06:34:24.674Z,0
2016-11-26T06:35:24.748Z,0
2016-11-26T06:36:24.793Z,0
2016-11-26T06:37:24.862Z,0
2016-11-26T06:38:24.905Z,0
2016-11-26T06:39:24.979Z,0
2016-11-26T06:40:25.031Z,0
2016-11-26T06:41:25.090Z,0
2016-11-26T06:42:25.144Z,0
2016-11-26T06:43:25.178Z,0
2016-11-26T06:44:25.263Z,0
2016-11-26T06:45:25.311Z,0
2016-11-26T06:46:25.362Z,0
2016-11-26T06:47:25.399Z,0
2016-11-26T06:48:25.456Z,0
2016-11-26T06:49:25.519Z,0
2016-11-26T06:50:25.579Z,0
2016-11-26T06:51:25.638Z,0
2016-11-26T06:52:25.691Z,0
2016-11-26T06:53:25.769Z,0
2016-11-26T06:54:25.798Z,0
2016-11-26T06:55:25.870Z,0
2016-11-26T06:56:25.936Z,0
2016-11-26T06:57:25.985Z,0
2016-11-26T06:58:26.030Z,0
2016-11-26T06:59:26.127Z,0
2016-11-26T07:00:26.145Z,0
2016-11-26T07:01:26.199Z,0
2016-11-26T07:02:26.275Z,0
2016-11-26T07:03:26.313Z,0
2016-11-26T07:04:26.387Z,0
2016-11-26T07:05:26.436Z,0
2016-11-26T07:06:26.468Z,0
2016-11-26T07:07:26.528Z,0
2016-11-26T07:08:26.618Z,0
2016-11-26T07:09:26.667Z,0
2016-11-26T07:10:26.722Z,0
2016-11-26T07:11:26.778Z,0
2016-11-26T07:12:26.809Z,0
2016-11-26T07:13:26.908Z,0
2016-11-26T07:14:26.953Z,0
2016-11-26T07:15:26.993Z,0
2016-11-26T07:16:27.094Z,0
2016-11-26T07:17:27.126Z,0
2016-11-26T07:18:27.175Z,0
2016-11-26T07:19:27.215Z,5
2016-11-26T07:20:27.290Z,5
2016-11-26T07:21:27.349Z,5
2016-11-26T07:22:27.400Z,5
2016-11-26T07:23:27.465Z,5
2016-11-26T07:24:27.517Z,5
2016-11-26T07:25:27.571Z,5
2016-11-26T07:26:27.610Z,5
2016-11-26T07:27:27.696Z,5
2016-11-26T07:28:27.780Z,5
2016-11-26T07:29:27.822Z,5
2016-11-26T07:30:27.848Z,5
2016-11-26T07:31:27.930Z,5
2016-11-26T07:32:27.971Z,5
2016-11-26T07:33:28.008Z,5
2016-11-26T07:34:28.073Z,5
2016-11-26T07:35:28.148Z,5
2016-11-26T07:36:28.192Z,5
2016-11-26T07:37:28.250Z,5
2016-11-26T07:38:28.295Z,5
2016-11-26T07:39:28.365Z,5
2016-11-26T07:40:28.407Z,5
2016-11-26T07:41:28.500Z,5
2016-11-26T07:42:28.535Z,5
2016-11-26T07:43:28.603Z,5
2016-11-26T07:44:28.647Z,5
2016-11-26T07:45:28.693Z,5
2016-11-26T07:46:28.751Z,5
2016-11-26T07:47:28.823Z,5
2016-11-26T07:48:28.915Z,5
2016-11-26T07:49:28.915Z,5
2016-11-26T07:50:28.989Z,5
2016-11-26T07:51:29.062Z,5
2016-11-26T07:52:29.111Z,5
2016-11-26T07:53:29.169Z,5
2016-11-26T07:54:29.212Z,5
2016-11-26T07:55:29.268Z,5
2016-11-26T07:56:29.901Z,5
2016-11-26T07:57:29.382Z,10
2016-11-26T07:58:29.443Z,10
2016-11-26T07:59:29.487Z,10
2016-11-26T08:00:29.545Z,10
2016-11-26T08:01:29.634Z,10
2016-11-26T08:02:29.657Z,10
2016-11-26T08:03:29.736Z,10
2016-11-26T08:04:29.798Z,10
2016-11-26T08:05:29.851Z,10
2016-11-26T08:06:29.891Z,10
2016-11-26T08:07:29.953Z,10
2016-11-26T08:08:30.011Z,10
2016-11-26T08:09:30.079Z,10
2016-11-26T08:10:30.139Z,10
2016-11-26T08:11:30.220Z,10
2016-11-26T08:12:30.247Z,10
2016-11-26T08:13:30.304Z,10
2016-11-26T08:14:30.386Z,15
2016-11-26T08:15:30.431Z,15
2016-11-26T08:16:30.479Z,15
2016-11-26T08:17:30.525Z,20
2016-11-26T08:18:30.607Z,20
2016-11-26T08:19:30.658Z,25
2016-11-26T08:20:30.673Z,25
2016-11-26T08:21:30.746Z,25
2016-11-26T08:22:30.823Z,25
2016-11-26T08:23:30.857Z,25
2016-11-26T08:24:30.930Z,25
2016-11-26T08:25:30.991Z,25
2016-11-26T08:26:31.047Z,25
2016-11-26T08:27:31.429Z,25
2016-11-26T08:28:31.144Z,20
2016-11-26T08:29:31.226Z,20
2016-11-26T08:30:31.470Z,25
2016-11-26T08:31:31.523Z,25
2016-11-26T08:32:31.373Z,25
2016-11-26T08:33:31.436Z,25
2016-11-26T08:34:31.487Z,25
2016-11-26T08:35:31.560Z,25
2016-11-26T08:36:31.609Z,25
2016-11-26T08:37:31.695Z,25
2016-11-26T08:38:31.707Z,25
2016-11-26T08:39:31.778Z,30
2016-11-26T08:40:31.838Z,25
2016-11-26T08:41:31.908Z,25
2016-11-26T08:42:31.965Z,20
2016-11-26T08:43:31.987Z,15
2016-11-26T08:44:32.075Z,15
2016-11-26T08:45:32.151Z,15
2016-11-26T08:46:32.178Z,15
2016-11-26T08:47:32.246Z,15
2016-11-26T08:48:32.293Z,15
2016-11-26T08:49:32.351Z,20
2016-11-26T08:50:32.409Z,20
2016-11-26T08:51:32.471Z,15
2016-11-26T08:52:32.543Z,15
2016-11-26T08:53:32.578Z,15
2016-11-26T08:54:32.966Z,15
2016-11-26T08:55:32.690Z,15
2016-11-26T08:56:32.758Z,15
2016-11-26T08:57:32.832Z,15
2016-11-26T08:58:32.887Z,15
2016-11-26T08:59:32.924Z,15
2016-11-26T09:00:33.164Z,15
2016-11-26T09:01:33.029Z,15
2016-11-26T09:02:33.096Z,15
2016-11-26T09:03:33.159Z,15
2016-11-26T09:04:33.195Z,15
2016-11-26T09:05:33.259Z,15
2016-11-26T09:06:33.307Z,15
2016-11-26T09:07:33.699Z,15
2016-11-26T09:08:33.465Z,15
2016-11-26T09:09:33.477Z,20
2016-11-26T09:10:33.558Z,20
2016-11-26T09:11:33.621Z,20
2016-11-26T09:12:33.687Z,20
2016-11-26T09:13:33.738Z,25
2016-11-26T09:14:33.798Z,25
2016-11-26T09:15:34.132Z,30
2016-11-26T09:16:33.891Z,30
2016-11-26T09:17:33.945Z,25
2016-11-26T09:18:34.027Z,20
2016-11-26T09:19:34.085Z,20
2016-11-26T09:20:34.154Z,20
2016-11-26T09:21:34.166Z,25
2016-11-26T09:22:34.246Z,25
2016-11-26T09:23:34.297Z,25
2016-11-26T09:24:34.367Z,30
2016-11-26T09:25:34.409Z,30
2016-11-26T09:26:34.496Z,30
2016-11-26T09:27:34.518Z,30
2016-11-26T09:28:34.564Z,25
2016-11-26T09:29:34.653Z,25
2016-11-26T09:30:35.121Z,25
2016-11-26T09:31:34.942Z,25
2016-11-26T09:32:34.827Z,20
2016-11-26T09:33:34.866Z,20
2016-11-26T09:34:34.928Z,20
2016-11-26T09:35:34.990Z,20
2016-11-26T09:36:35.046Z,20
2016-11-26T09:37:35.115Z,25
2016-11-26T09:38:35.168Z,25
2016-11-26T09:39:35.242Z,25
2016-11-26T09:40:35.268Z,25
2016-11-26T09:41:35.319Z,25
2016-11-26T09:42:35.383Z,25
2016-11-26T09:43:35.470Z,25
2016-11-26T09:44:35.505Z,25
2016-11-26T09:45:35.561Z,25
2016-11-26T09:46:35.621Z,25
2016-11-26T09:47:35.697Z,25
2016-11-26T09:48:35.752Z,30
2016-11-26T09:49:35.779Z,30
2016-11-26T09:50:35.852Z,30
2016-11-26T09:51:35.912Z,35
2016-11-26T09:52:35.945Z,35
2016-11-26T09:53:36.023Z,35
2016-11-26T09:54:36.100Z,35
2016-11-26T09:55:36.134Z,35
2016-11-26T09:56:36.180Z,35
2016-11-26T09:57:36.263Z,35
2016-11-26T09:58:36.284Z,40
2016-11-26T09:59:36.366Z,40
2016-11-26T10:00:36.420Z,40
2016-11-26T10:01:36.491Z,45
2016-11-26T10:02:36.846Z,50
2016-11-26T10:03:51.515Z,50
2016-11-26T10:04:36.664Z,55
2016-11-26T10:05:36.697Z,55
2016-11-26T10:06:36.758Z,55
2016-11-26T10:07:36.852Z,55
2016-11-26T10:08:36.858Z,55
2016-11-26T10:09:36.915Z,50
2016-11-26T10:10:36.979Z,50
2016-11-26T10:11:37.051Z,45
2016-11-26T10:12:37.108Z,45
2016-11-26T10:13:37.183Z,45
2016-11-26T10:14:37.231Z,45
2016-11-26T10:15:37.279Z,40
2016-11-26T10:16:37.366Z,40
2016-11-26T10:17:37.395Z,40
2016-11-26T10:18:37.457Z,45
2016-11-26T10:19:37.499Z,45
2016-11-26T10:20:37.577Z,50
2016-11-26T10:21:37.638Z,50
2016-11-26T10:22:37.683Z,50
2016-11-26T10:23:37.743Z,50
2016-11-26T10:24:37.815Z,50
2016-11-26T10:25:37.855Z,45
2016-11-26T10:26:37.924Z,45
2016-11-26T10:27:37.971Z,40
2016-11-26T10:28:38.037Z,40
2016-11-26T10:29:38.105Z,40
2016-11-26T10:30:38.135Z,45
2016-11-26T10:31:38.219Z,35
2016-11-26T10:32:38.483Z,40
2016-11-26T10:33:38.357Z,35
2016-11-26T10:34:38.382Z,35
2016-11-26T10:35:38.446Z,35
2016-11-26T10:36:38.501Z,40
2016-11-26T10:37:38.562Z,30
2016-11-26T10:38:38.618Z,30
2016-11-26T10:39:38.704Z,35
2016-11-26T10:40:38.747Z,40
2016-11-26T10:41:38.819Z,40
2016-11-26T10:42:38.843Z,40
2016-11-26T10:43:38.917Z,40
2016-11-26T10:44:38.950Z,35
2016-11-26T10:45:39.041Z,30
2016-11-26T10:46:39.117Z,40
2016-11-26T10:47:39.164Z,35
2016-11-26T10:48:39.207Z,40
2016-11-26T10:49:39.272Z,40
2016-11-26T10:50:39.307Z,40
2016-11-26T10:51:39.380Z,35
2016-11-26T10:52:39.432Z,35
2016-11-26T10:53:39.493Z,35
2016-11-26T10:54:39.542Z,30
2016-11-26T10:55:39.603Z,30
2016-11-26T10:56:39.686Z,30
2016-11-26T10:57:39.717Z,25
2016-11-26T10:58:39.775Z,25
2016-11-26T10:59:39.870Z,20
2016-11-26T11:00:54.824Z,20
2016-11-26T11:01:40.149Z,20
2016-11-26T11:02:40.021Z,20
2016-11-26T11:03:40.395Z,20
2016-11-26T11:04:40.122Z,20
2016-11-26T11:05:40.216Z,20
2016-11-26T11:06:40.241Z,25
2016-11-26T11:07:40.294Z,30
2016-11-26T11:08:40.361Z,25
2016-11-26T11:09:40.430Z,30
2016-11-26T11:10:40.473Z,30
2016-11-26T11:11:40.568Z,35
2016-11-26T11:12:40.607Z,35
2016-11-26T11:13:40.653Z,40
2016-11-26T11:14:40.739Z,45
2016-11-26T11:15:40.771Z,40
2016-11-26T11:16:40.837Z,40
2016-11-26T11:17:40.915Z,45
2016-11-26T11:18:40.944Z,40
2016-11-26T11:19:41.011Z,45
2016-11-26T11:20:41.063Z,45
2016-11-26T11:21:41.121Z,45
2016-11-26T11:22:41.170Z,40
2016-11-26T11:23:41.214Z,40
2016-11-26T11:24:41.320Z,40
2016-11-26T11:25:41.669Z,40
2016-11-26T11:26:41.443Z,35
2016-11-26T11:27:41.450Z,40
2016-11-26T11:28:41.539Z,35
2016-11-26T11:29:41.606Z,40
2016-11-26T11:30:41.642Z,35
2016-11-26T11:31:41.707Z,35
2016-11-26T11:32:41.754Z,30
2016-11-26T11:33:41.822Z,30
2016-11-26T11:34:41.884Z,30
2016-11-26T11:35:41.961Z,35
2016-11-26T11:36:42.325Z,40
2016-11-26T11:37:42.072Z,40
2016-11-26T11:38:42.134Z,40
2016-11-26T11:39:42.165Z,45
2016-11-26T11:40:42.247Z,45
2016-11-26T11:41:42.305Z,50
2016-11-26T11:42:42.364Z,50
2016-11-26T11:43:42.701Z,50
2016-11-26T11:44:42.467Z,50
2016-11-26T11:45:42.505Z,50
2016-11-26T11:46:42.605Z,50
2016-11-26T11:47:42.640Z,50
2016-11-26T11:48:42.674Z,45
2016-11-26T11:49:42.760Z,45
2016-11-26T11:50:42.833Z,45
2016-11-26T11:51:42.883Z,40
2016-11-26T11:52:42.940Z,40
2016-11-26T11:53:42.990Z,40
2016-11-26T11:54:43.058Z,40
2016-11-26T11:55:43.114Z,40
2016-11-26T11:56:43.177Z,40
2016-11-26T11:57:43.197Z,40
2016-11-26T11:58:43.285Z,40
2016-11-26T11:59:43.330Z,40
2016-11-26T12:00:43.406Z,40
2016-11-26T12:01:43.765Z,40
2016-11-26T12:02:43.856Z,45
2016-11-26T12:03:43.568Z,45
2016-11-26T12:04:43.640Z,45
2016-11-26T12:05:43.701Z,45
2016-11-26T12:06:43.751Z,45
2016-11-26T12:07:43.806Z,40
2016-11-26T12:08:43.876Z,40
2016-11-26T12:09:43.911Z,50
2016-11-26T12:10:43.983Z,45
2016-11-26T12:11:44.065Z,50
2016-11-26T12:12:44.099Z,50
2016-11-26T12:13:44.163Z,50
2016-11-26T12:14:44.222Z,55
2016-11-26T12:15:44.279Z,50
2016-11-26T12:16:44.318Z,50
2016-11-26T12:17:44.423Z,45
2016-11-26T12:18:44.442Z,40
2016-11-26T12:19:44.508Z,50
2016-11-26T12:20:44.589Z,55
2016-11-26T12:21:44.612Z,60
2016-11-26T12:22:44.690Z,55
2016-11-26T12:23:44.765Z,55
2016-11-26T12:24:44.810Z,60
2016-11-26T12:25:44.913Z,60
2016-11-26T12:26:44.924Z,60
2016-11-26T12:27:44.969Z,60
2016-11-26T12:28:45.022Z,60
2016-11-26T12:29:45.104Z,55
2016-11-26T12:30:45.442Z,45
2016-11-26T12:31:45.185Z,40
2016-11-26T12:32:45.273Z,40
2016-11-26T12:33:45.322Z,40
2016-11-26T12:34:45.382Z,40
2016-11-26T12:35:45.441Z,35
2016-11-26T12:36:45.488Z,35
2016-11-26T12:37:45.550Z,35
2016-11-26T12:38:45.598Z,35
2016-11-26T12:39:45.682Z,35
2016-11-26T12:40:45.711Z,35
2016-11-26T12:41:45.776Z,35
2016-11-26T12:42:45.835Z,35
2016-11-26T12:43:45.900Z,35
2016-11-26T12:44:45.951Z,40
2016-11-26T12:45:46.021Z,40
2016-11-26T12:46:46.083Z,40
2016-11-26T12:47:46.147Z,40
2016-11-26T12:48:46.183Z,35
2016-11-26T12:49:46.267Z,40
2016-11-26T12:50:46.316Z,40
2016-11-26T12:51:46.375Z,40
2016-11-26T12:52:46.409Z,35
2016-11-26T12:53:46.489Z,35
2016-11-26T12:54:46.551Z,35
2016-11-26T12:55:46.618Z,35
2016-11-26T12:56:46.983Z,35
2016-11-26T12:57:46.730Z,35
2016-11-26T12:58:46.790Z,35
2016-11-26T12:59:46.839Z,35
2016-11-26T13:00:46.898Z,35
2016-11-26T13:01:46.956Z,35
2016-11-26T13:02:47.004Z,35
2016-11-26T13:03:47.045Z,35
2016-11-26T13:04:47.133Z,40
2016-11-26T13:05:47.189Z,40
2016-11-26T13:06:47.240Z,40
2016-11-26T13:07:47.436Z,35
2016-11-26T13:08:47.398Z,35
2016-11-26T13:09:47.718Z,40
2016-11-26T13:10:47.484Z,45
2016-11-26T13:11:47.516Z,55
2016-11-26T13:12:47.591Z,70
2016-11-26T13:13:47.652Z,55
2016-11-26T13:14:47.697Z,55
2016-11-26T13:15:47.766Z,55
2016-11-26T13:16:47.840Z,55
2016-11-26T13:17:47.871Z,45
2016-11-26T13:18:47.965Z,45
2016-11-26T13:19:48.022Z,45
2016-11-26T13:20:48.049Z,45
2016-11-26T13:21:48.142Z,45
2016-11-26T13:22:48.185Z,50
2016-11-26T13:23:48.206Z,50
2016-11-26T13:24:48.291Z,45
2016-11-26T13:25:48.362Z,55
2016-11-26T13:26:49.007Z,55
2016-11-26T13:27:48.750Z,50
2016-11-26T13:28:48.524Z,50
2016-11-26T13:29:48.591Z,50
2016-11-26T13:30:48.639Z,50
2016-11-26T13:31:48.687Z,50
2016-11-26T13:32:48.758Z,45
2016-11-26T13:33:48.821Z,50
2016-11-26T13:34:48.870Z,50
2016-11-26T13:35:48.902Z,45
2016-11-26T13:36:48.981Z,40
2016-11-26T13:37:49.042Z,35
2016-11-26T13:38:49.111Z,30
2016-11-26T13:39:49.154Z,30
2016-11-26T13:40:49.217Z,30
2016-11-26T13:41:49.276Z,30
2016-11-26T13:42:49.346Z,30
2016-11-26T13:43:49.724Z,30
2016-11-26T13:44:49.465Z,30
2016-11-26T13:45:49.519Z,25
2016-11-26T13:46:49.884Z,25
2016-11-26T13:47:49.634Z,20
2016-11-26T13:48:50.104Z,20
2016-11-26T13:49:49.744Z,20
2016-11-26T13:50:49.810Z,25
2016-11-26T13:51:49.842Z,20
2016-11-26T13:52:49.890Z,20
2016-11-26T13:53:49.985Z,20
2016-11-26T13:54:50.035Z,15
2016-11-26T13:55:50.070Z,10
2016-11-26T13:56:50.160Z,10
2016-11-26T13:57:50.204Z,10
2016-11-26T13:58:50.422Z,5
2016-11-26T13:59:50.332Z,5
2016-11-26T14:00:50.401Z,5
2016-11-26T14:01:50.437Z,5
2016-11-26T14:02:50.486Z,5
2016-11-26T14:03:50.556Z,10
2016-11-26T14:04:50.628Z,10
2016-11-26T14:05:50.661Z,10
2016-11-26T14:06:50.707Z,10
2016-11-26T14:07:50.769Z,10
2016-11-26T14:08:50.837Z,10
2016-11-26T14:09:50.911Z,10
2016-11-26T14:10:50.957Z,15
2016-11-26T14:11:51.031Z,15
2016-11-26T14:12:51.069Z,15
2016-11-26T14:13:51.125Z,15
2016-11-26T14:14:51.178Z,15
2016-11-26T14:15:51.234Z,15
2016-11-26T14:16:51.293Z,10
2016-11-26T14:17:51.394Z,10
2016-11-26T14:18:51.416Z,10
2016-11-26T14:19:51.472Z,10
2016-11-26T14:20:51.544Z,10
2016-11-26T14:21:51.612Z,10
2016-11-26T14:22:51.647Z,15
2016-11-26T14:23:51.704Z,15
2016-11-26T14:24:51.764Z,15
2016-11-26T14:25:51.827Z,15
2016-11-26T14:26:51.883Z,15
2016-11-26T14:27:51.951Z,15
2016-11-26T14:28:51.984Z,15
2016-11-26T14:29:52.072Z,10
2016-11-26T14:30:52.136Z,10
2016-11-26T14:31:52.187Z,10
2016-11-26T14:32:52.217Z,10